Earth City, Missouri
Current Conditions -  °F | °C
As of 6:51 PM on Thursday 27 Nov 2014 (Local Time) from KSTL Reporting Station
Scattered Clouds Scattered Clouds  
Wind Chill: 29°   Ceiling: Unl
Heat Index: 29°   Visibility: 10mi
Dew Point: 16°   Wind: 3mph
Humidity: 58%   Direction: 40°NE
Pressure: 30.47"   Gusts: NA
Location:  38.77°N, 90.47°W
Report Text: KSTL 280051Z 04003KT 10SM FEW060 SCT250 M02/M09 A3047 RMK AO2 SLP328 T10171089 $
Loading
Personal Weather Stations






























Interactive Weather Map New forecast layout! Learn more

10-Day Weather Forecast

Advertisements
Track Severe Weather on mobile